Nearby METAR Reports

 

KSBP - San Luis Obispo, California, USA
Distance from station: S 14mi, 22km
Updated: Wed, 22-May-2019 2:10am
Overcast
Overcast
 Wind from NW
Wind: NW 3 mph , 6 km/h
Temperature: 52°F , 11°C
Dew Point: 46°F , 8°C
Humidity: 82%
Barometer: 1011.2 hPa
Clouds: Overcast
Visibility: 10 miles , 16 km
Cloud details: Mostly cloudy 2000 ft
Overcast 6000 ft
2019/05/22 09:10 KSBP 220910Z AUTO 32003KT 10SM BKN020 OVC060 11/08 A2986 RMK AO2 T01060083
KPRB - Paso Robles, California, USA
Distance from station: N 16mi, 26km
Updated: Wed, 22-May-2019 1:53am
Overcast
Overcast
 Wind from WSW
Wind: WSW 5 mph , 7 km/h
Temperature: 50°F , 10°C
Wind Chill: 48°F , 9°C
Dew Point: 46°F , 8°C
Humidity: 88%
Barometer: 1010.8 hPa
Clouds: Overcast
Visibility: 10 miles , 16 km
Cloud details: Mostly cloudy 3900 ft
Overcast 5000 ft
2019/05/22 08:53 KPRB 220853Z AUTO 25004KT 10SM BKN039 OVC050 10/08 A2985 RMK AO2 SLP105 T01000078 58013
 
KSMX - Santa Maria, California, USA
Distance from station: SSE 38mi, 62km
Updated: Wed, 22-May-2019 2:22am
Partly cloudy
Partly cloudy
 Wind from N
Wind: N 3 mph , 6 km/h
Temperature: 50°F , 10°C
Dew Point: 48°F , 9°C
Humidity: 94%
Barometer: 1011.2 hPa
Clouds: Partly cloudy
Visibility: 8 miles , 13 km
Cloud details: Few Clouds 2700 ft
Partly cloudy 6500 ft
2019/05/22 09:22 KSMX 220922Z AUTO 36003KT 8SM FEW027 SCT065 10/09 A2986 RMK AO2 T01000089 $
KVBG - Vandenberg Afb, California, USA
Distance from station: S 48mi, 78km
Updated: Tue, 21-May-2019 2:55pm
NOT Current
Mostly cloudy
Mostly cloudy
 Wind from NNW
Wind: NNW 24 mph , 39 km/h, Gust: 30 mph , 48 km/h
Temperature: 61°F , 16°C
Dew Point: 52°F , 11°C
Humidity: 72%
Barometer: 1013.9 hPa
Clouds: Mostly cloudy
Visibility: 8 miles , 13 km
Cloud details: Partly cloudy 1500 ft
Partly cloudy 2400 ft
Mostly cloudy 35000 ft
2019/05/21 21:55 KVBG 212155Z 34021G26KT 250V160 8SM SCT015 SCT024 BKN350 16/11 A2994 RMK AO2A PK WND 35028/2059 SLP143 T01570110